sensor_id;sensor_type;location;lat;lon;timestamp;pressure;altitude;pressure_sealevel;temperature;humidity
9439;BME280;5176;42.622;25.386;2023-03-31T19:52:25;96550.03;;;12.41;57.21
9439;BME280;5176;42.622;25.386;2023-03-31T19:54:55;96544.78;;;12.41;57.48
9439;BME280;5176;42.622;25.386;2023-03-31T19:57:24;96550.53;;;12.35;57.43
9439;BME280;5176;42.622;25.386;2023-03-31T19:59:53;96558.91;;;12.28;57.89
9439;BME280;5176;42.622;25.386;2023-03-31T20:02:21;96553.53;;;12.30;57.64
9439;BME280;5176;42.622;25.386;2023-03-31T20:04:50;96556.78;;;12.22;58.00
9439;BME280;5176;42.622;25.386;2023-03-31T20:07:19;96556.84;;;12.11;58.15
9439;BME280;5176;42.622;25.386;2023-03-31T20:09:50;96561.28;;;11.99;58.97
9439;BME280;5176;42.622;25.386;2023-03-31T20:12:18;96559.50;;;11.89;59.71
9439;BME280;5176;42.622;25.386;2023-03-31T20:14:47;96548.50;;;11.95;59.70
9439;BME280;5176;42.622;25.386;2023-03-31T20:17:16;96547.66;;;11.94;59.55
9439;BME280;5176;42.622;25.386;2023-03-31T20:19:46;96550.31;;;11.94;59.26
9439;BME280;5176;42.622;25.386;2023-03-31T20:22:15;96551.63;;;11.89;59.88
9439;BME280;5176;42.622;25.386;2023-03-31T20:24:46;96545.41;;;11.90;60.10
9439;BME280;5176;42.622;25.386;2023-03-31T20:27:16;96547.81;;;11.82;60.44
9439;BME280;5176;42.622;25.386;2023-03-31T20:29:45;96546.47;;;11.76;60.60
9439;BME280;5176;42.622;25.386;2023-03-31T20:32:13;96548.16;;;11.77;60.30
9439;BME280;5176;42.622;25.386;2023-03-31T20:34:43;96553.16;;;11.80;60.22
9439;BME280;5176;42.622;25.386;2023-03-31T20:37:12;96546.25;;;11.79;60.76
9439;BME280;5176;42.622;25.386;2023-03-31T20:39:40;96536.56;;;11.80;60.39
9439;BME280;5176;42.622;25.386;2023-03-31T20:42:10;96530.72;;;11.76;60.45
9439;BME280;5176;42.622;25.386;2023-03-31T20:44:40;96543.63;;;11.79;60.67
9439;BME280;5176;42.622;25.386;2023-03-31T20:47:09;96534.09;;;11.78;60.79
9439;BME280;5176;42.622;25.386;2023-03-31T20:49:38;96534.78;;;11.80;60.61
9439;BME280;5176;42.622;25.386;2023-03-31T20:52:07;96537.06;;;11.62;61.82
9439;BME280;5176;42.622;25.386;2023-03-31T20:54:36;96549.22;;;11.63;61.65
9439;BME280;5176;42.622;25.386;2023-03-31T20:57:05;96543.53;;;11.58;61.90
9439;BME280;5176;42.622;25.386;2023-03-31T20:59:34;96547.00;;;11.59;62.05
9439;BME280;5176;42.622;25.386;2023-03-31T21:02:06;96548.78;;;11.58;62.02
9439;BME280;5176;42.622;25.386;2023-03-31T21:04:35;96545.69;;;11.53;62.13
9439;BME280;5176;42.622;25.386;2023-03-31T21:07:03;96552.38;;;11.57;61.78
9439;BME280;5176;42.622;25.386;2023-03-31T21:09:32;96552.47;;;11.56;61.64
9439;BME280;5176;42.622;25.386;2023-03-31T21:12:01;96557.63;;;11.57;61.70
9439;BME280;5176;42.622;25.386;2023-03-31T21:14:31;96556.66;;;11.58;61.99
9439;BME280;5176;42.622;25.386;2023-03-31T21:17:00;96557.72;;;11.56;62.08
9439;BME280;5176;42.622;25.386;2023-03-31T21:19:30;96564.41;;;11.49;62.04
9439;BME280;5176;42.622;25.386;2023-03-31T21:21:59;96556.16;;;11.42;62.48
9439;BME280;5176;42.622;25.386;2023-03-31T21:24:27;96554.84;;;11.36;62.52
9439;BME280;5176;42.622;25.386;2023-03-31T21:26:56;96551.16;;;11.28;62.83
9439;BME280;5176;42.622;25.386;2023-03-31T21:29:25;96554.63;;;11.28;63.18
9439;BME280;5176;42.622;25.386;2023-03-31T21:31:54;96556.06;;;11.21;63.41
9439;BME280;5176;42.622;25.386;2023-03-31T21:34:23;96545.91;;;11.16;63.96
9439;BME280;5176;42.622;25.386;2023-03-31T21:36:54;96547.34;;;11.09;64.39
9439;BME280;5176;42.622;25.386;2023-03-31T21:39:22;96541.63;;;11.04;64.59
9439;BME280;5176;42.622;25.386;2023-03-31T21:41:51;96538.63;;;10.98;64.88
9439;BME280;5176;42.622;25.386;2023-03-31T21:44:20;96512.72;;;10.82;65.33
9439;BME280;5176;42.622;25.386;2023-03-31T21:46:49;96534.22;;;10.98;65.52
9439;BME280;5176;42.622;25.386;2023-03-31T21:49:18;96536.72;;;11.00;65.13
9439;BME280;5176;42.622;25.386;2023-03-31T21:51:47;96533.59;;;10.95;65.32
9439;BME280;5176;42.622;25.386;2023-03-31T21:54:18;96534.19;;;10.87;66.13
9439;BME280;5176;42.622;25.386;2023-03-31T21:56:48;96529.56;;;10.90;65.61
9439;BME280;5176;42.622;25.386;2023-03-31T21:59:17;96530.63;;;10.88;65.67
9439;BME280;5176;42.622;25.386;2023-03-31T22:01:46;96524.88;;;10.83;66.34
9439;BME280;5176;42.622;25.386;2023-03-31T22:04:15;96523.81;;;10.74;66.52
9439;BME280;5176;42.622;25.386;2023-03-31T22:06:44;96525.94;;;10.69;66.98
9439;BME280;5176;42.622;25.386;2023-03-31T22:09:13;96532.75;;;10.72;66.88
9439;BME280;5176;42.622;25.386;2023-03-31T22:11:44;96519.97;;;10.67;66.95
9439;BME280;5176;42.622;25.386;2023-03-31T22:14:13;96528.19;;;10.62;67.07
9439;BME280;5176;42.622;25.386;2023-03-31T22:16:42;96531.88;;;10.60;67.29
9439;BME280;5176;42.622;25.386;2023-03-31T22:19:11;96523.53;;;10.55;67.51
9439;BME280;5176;42.622;25.386;2023-03-31T22:21:40;96522.81;;;10.53;67.28
9439;BME280;5176;42.622;25.386;2023-03-31T22:24:11;96520.41;;;10.50;67.53
9439;BME280;5176;42.622;25.386;2023-03-31T22:26:40;96515.41;;;10.47;67.42
9439;BME280;5176;42.622;25.386;2023-03-31T22:29:14;96515.16;;;10.39;67.61
9439;BME280;5176;42.622;25.386;2023-03-31T22:31:43;96519.06;;;10.33;68.13
9439;BME280;5176;42.622;25.386;2023-03-31T22:34:12;96516.56;;;10.31;68.27
9439;BME280;5176;42.622;25.386;2023-03-31T22:36:42;96494.75;;;10.07;68.12
9439;BME280;5176;42.622;25.386;2023-03-31T22:39:10;96522.88;;;10.16;68.27
9439;BME280;5176;42.622;25.386;2023-03-31T22:41:39;96511.47;;;10.17;68.29
9439;BME280;5176;42.622;25.386;2023-03-31T22:44:08;96510.41;;;10.20;67.39
9439;BME280;5176;42.622;25.386;2023-03-31T22:46:39;96514.56;;;10.22;67.93
9439;BME280;5176;42.622;25.386;2023-03-31T22:49:08;96521.41;;;10.25;68.20
9439;BME280;5176;42.622;25.386;2023-03-31T22:51:37;96514.56;;;10.22;68.36
9439;BME280;5176;42.622;25.386;2023-03-31T22:54:08;96512.06;;;10.21;68.38
9439;BME280;5176;42.622;25.386;2023-03-31T22:56:39;96505.84;;;10.10;68.66
9439;BME280;5176;42.622;25.386;2023-03-31T22:59:09;96497.25;;;10.08;69.02
9439;BME280;5176;42.622;25.386;2023-03-31T23:01:39;96497.31;;;9.96;69.81
9439;BME280;5176;42.622;25.386;2023-03-31T23:04:07;96489.44;;;9.85;70.22
9439;BME280;5176;42.622;25.386;2023-03-31T23:06:37;96482.72;;;9.80;70.38
9439;BME280;5176;42.622;25.386;2023-03-31T23:09:06;96478.69;;;9.76;70.46
9439;BME280;5176;42.622;25.386;2023-03-31T23:11:35;96483.28;;;9.73;70.94
9439;BME280;5176;42.622;25.386;2023-03-31T23:14:03;96487.81;;;9.71;70.88
9439;BME280;5176;42.622;25.386;2023-03-31T23:16:32;96490.50;;;9.69;70.74
9439;BME280;5176;42.622;25.386;2023-03-31T23:19:03;96487.19;;;9.67;69.73
9439;BME280;5176;42.622;25.386;2023-03-31T23:21:32;96480.59;;;9.62;69.99
9439;BME280;5176;42.622;25.386;2023-03-31T23:24:02;96486.69;;;9.49;70.23
9439;BME280;5176;42.622;25.386;2023-03-31T23:26:32;96473.22;;;9.43;70.45
9439;BME280;5176;42.622;25.386;2023-03-31T23:29:01;96474.41;;;9.39;70.37
9439;BME280;5176;42.622;25.386;2023-03-31T23:31:31;96467.72;;;9.35;70.73
9439;BME280;5176;42.622;25.386;2023-03-31T23:34:00;96469.09;;;9.27;71.02
9439;BME280;5176;42.622;25.386;2023-03-31T23:36:30;96472.66;;;9.26;71.64
9439;BME280;5176;42.622;25.386;2023-03-31T23:38:59;96467.44;;;9.26;71.87
9439;BME280;5176;42.622;25.386;2023-03-31T23:41:27;96469.84;;;9.30;72.20
9439;BME280;5176;42.622;25.386;2023-03-31T23:43:56;96463.16;;;9.25;71.47
9439;BME280;5176;42.622;25.386;2023-03-31T23:46:24;96463.75;;;9.29;71.71
9439;BME280;5176;42.622;25.386;2023-03-31T23:48:54;96465.75;;;9.25;72.03
9439;BME280;5176;42.622;25.386;2023-03-31T23:51:23;96466.38;;;9.29;71.71
9439;BME280;5176;42.622;25.386;2023-03-31T23:53:56;96466.31;;;9.18;72.29
9439;BME280;5176;42.622;25.386;2023-03-31T23:56:25;96461.38;;;9.13;72.31
9439;BME280;5176;42.622;25.386;2023-03-31T23:58:54;96460.88;;;9.08;72.22
